Time;durP1;ratioP1;P1;durP2;ratioP2;P2;SDS_P1;SDS_P2;PMS_P1;PMS_P2;Temp;Humidity;BMP_temperature;BMP_pressure;BME280_temperature;BME280_humidity;BME280_pressure;Samples;Min_cycle;Max_cycle;Signal;HPM_P1;HPM_P2
2023/05/14 00:01:26;;;;;;;1.60;1.50;;;;;;;;;;5033885;28;58605;-67
2023/05/14 00:03:52;;;;;;;1.23;1.13;;;;;;;;;;5033991;28;58508;-67
2023/05/14 00:06:17;;;;;;;1.42;1.33;;;;;;;;;;5034150;28;58653;-68
2023/05/14 00:08:42;;;;;;;1.55;1.45;;;;;;;;;;5032465;28;58379;-67
2023/05/14 00:11:07;;;;;;;3.30;1.20;;;;;;;;;;5033068;28;58303;-68
2023/05/14 00:13:33;;;;;;;1.05;1.00;;;;;;;;;;5031756;28;59735;-68
2023/05/14 00:15:58;;;;;;;0.80;0.80;;;;;;;;;;5034681;28;58898;-68
2023/05/14 00:18:23;;;;;;;2.78;1.25;;;;;;;;;;5033572;28;58949;-68
2023/05/14 00:20:53;;;;;;;1.33;1.23;;;;;;;;;;5031715;28;58628;-68
2023/05/14 00:23:18;;;;;;;2.55;1.55;;;;;;;;;;5033367;28;58337;-68
2023/05/14 00:25:43;;;;;;;1.20;1.10;;;;;;;;;;5034155;28;58940;-69
2023/05/14 00:28:08;;;;;;;1.57;1.17;;;;;;;;;;5031386;28;58424;-68
2023/05/14 00:30:34;;;;;;;1.65;1.27;;;;;;;;;;5032655;28;58315;-67
2023/05/14 00:32:59;;;;;;;0.90;0.90;;;;;;;;;;5033790;28;58179;-69
2023/05/14 00:35:24;;;;;;;1.33;1.27;;;;;;;;;;5034681;28;58542;-68
2023/05/14 00:37:49;;;;;;;1.47;0.93;;;;;;;;;;5030302;28;58844;-69
2023/05/14 00:40:14;;;;;;;0.93;0.93;;;;;;;;;;5032855;28;59032;-69
2023/05/14 00:42:39;;;;;;;1.03;1.00;;;;;;;;;;5033341;28;58976;-68
2023/05/14 00:45:05;;;;;;;0.90;0.90;;;;;;;;;;5031146;28;59425;-69
2023/05/14 00:47:32;;;;;;;1.00;1.00;;;;;;;;;;5035671;28;58579;-68
2023/05/14 00:49:57;;;;;;;0.90;0.90;;;;;;;;;;5030838;28;58138;-68
2023/05/14 00:52:22;;;;;;;1.23;1.13;;;;;;;;;;5033009;28;58786;-69
2023/05/14 00:54:48;;;;;;;1.25;1.20;;;;;;;;;;5030896;28;60392;-67
2023/05/14 00:57:13;;;;;;;1.52;1.42;;;;;;;;;;5032766;28;58405;-69
2023/05/14 00:59:40;;;;;;;1.33;1.10;;;;;;;;;;5035811;28;58183;-68
2023/05/14 01:02:05;;;;;;;1.13;1.10;;;;;;;;;;5030171;28;59370;-68
2023/05/14 01:04:31;;;;;;;1.35;1.25;;;;;;;;;;5034395;28;58505;-69
2023/05/14 01:07:16;;;;;;;1.33;1.20;;;;;;;;;;5032961;28;59670;-69
2023/05/14 01:09:48;;;;;;;0.98;0.93;;;;;;;;;;5004550;28;58450;-67
2023/05/14 01:12:18;;;;;;;1.20;1.10;;;;;;;;;;5036713;28;58977;-68
2023/05/14 01:14:48;;;;;;;1.40;1.30;;;;;;;;;;5033645;28;58448;-65
2023/05/14 01:17:15;;;;;;;1.17;1.08;;;;;;;;;;5035155;28;58372;-68
2023/05/14 01:19:41;;;;;;;0.90;0.90;;;;;;;;;;5035274;28;58709;-68
2023/05/14 01:22:06;;;;;;;0.98;0.98;;;;;;;;;;5036101;28;58429;-69
2023/05/14 01:24:32;;;;;;;0.80;0.80;;;;;;;;;;5035107;28;58951;-67
2023/05/14 01:27:02;;;;;;;1.20;1.10;;;;;;;;;;5036067;28;59079;-68
2023/05/14 01:29:29;;;;;;;1.20;1.10;;;;;;;;;;5036587;28;58329;-67
2023/05/14 01:31:56;;;;;;;1.05;0.95;;;;;;;;;;5037388;28;59063;-71
2023/05/14 01:34:22;;;;;;;0.80;0.80;;;;;;;;;;5036523;28;58539;-68
2023/05/14 01:36:47;;;;;;;1.20;1.08;;;;;;;;;;5037773;28;58356;-69
2023/05/14 01:39:14;;;;;;;1.58;1.20;;;;;;;;;;5037807;28;59378;-69
2023/05/14 01:41:39;;;;;;;1.27;1.17;;;;;;;;;;5036362;28;58819;-64
2023/05/14 01:44:04;;;;;;;0.95;0.95;;;;;;;;;;5034042;28;58427;-69
2023/05/14 01:46:30;;;;;;;1.13;1.03;;;;;;;;;;5036566;28;59101;-68
2023/05/14 01:48:55;;;;;;;1.25;1.23;;;;;;;;;;5036333;28;58788;-69
2023/05/14 01:51:20;;;;;;;1.42;1.33;;;;;;;;;;5034180;28;58783;-69
2023/05/14 01:53:45;;;;;;;1.05;1.05;;;;;;;;;;5035920;28;58693;-68
2023/05/14 01:56:11;;;;;;;1.40;1.07;;;;;;;;;;5037218;28;58324;-66
2023/05/14 01:58:36;;;;;;;1.05;0.98;;;;;;;;;;5031122;28;59025;-68
2023/05/14 02:01:01;;;;;;;0.93;0.93;;;;;;;;;;5032740;28;58578;-69
2023/05/14 02:03:26;;;;;;;1.20;1.10;;;;;;;;;;5035279;28;58644;-68
2023/05/14 02:05:51;;;;;;;1.07;1.00;;;;;;;;;;5034506;28;58446;-69
2023/05/14 02:08:16;;;;;;;0.88;0.88;;;;;;;;;;5034643;28;59144;-68
2023/05/14 02:10:41;;;;;;;1.20;1.10;;;;;;;;;;5028764;28;58913;-65
2023/05/14 02:13:08;;;;;;;1.13;1.02;;;;;;;;;;5027524;28;58548;-69
2023/05/14 02:15:33;;;;;;;0.90;0.90;;;;;;;;;;5028428;28;58290;-69
2023/05/14 02:17:58;;;;;;;1.03;0.90;;;;;;;;;;5026677;28;58912;-68
2023/05/14 02:20:23;;;;;;;1.00;1.00;;;;;;;;;;5029573;28;59324;-66
2023/05/14 02:22:48;;;;;;;1.45;1.30;;;;;;;;;;5024821;28;58545;-66
2023/05/14 02:25:14;;;;;;;1.20;1.10;;;;;;;;;;5025628;28;58920;-68
2023/05/14 02:27:39;;;;;;;1.07;1.07;;;;;;;;;;5028054;28;58408;-68
2023/05/14 02:30:05;;;;;;;1.23;1.13;;;;;;;;;;5030526;28;58542;-68
2023/05/14 02:32:30;;;;;;;1.10;1.00;;;;;;;;;;5027127;28;58785;-68
2023/05/14 02:34:55;;;;;;;0.95;0.93;;;;;;;;;;5024944;28;58442;-67
2023/05/14 02:37:20;;;;;;;1.27;1.17;;;;;;;;;;5030680;28;58346;-69
2023/05/14 02:39:45;;;;;;;1.00;0.77;;;;;;;;;;5027332;28;58472;-69
2023/05/14 02:42:10;;;;;;;1.25;1.15;;;;;;;;;;5028171;28;58760;-68
2023/05/14 02:44:35;;;;;;;0.93;0.93;;;;;;;;;;5026900;28;58362;-68
2023/05/14 02:47:01;;;;;;;1.30;1.20;;;;;;;;;;5024167;28;58629;-68
2023/05/14 02:49:26;;;;;;;1.07;1.07;;;;;;;;;;5026545;28;58722;-68
2023/05/14 02:51:53;;;;;;;1.37;1.27;;;;;;;;;;5027265;28;58640;-65
2023/05/14 02:54:18;;;;;;;1.33;1.23;;;;;;;;;;5026982;28;58794;-68
2023/05/14 02:56:43;;;;;;;0.98;0.98;;;;;;;;;;5025687;28;58828;-67
2023/05/14 02:59:08;;;;;;;1.00;1.00;;;;;;;;;;5023201;28;61426;-64
2023/05/14 03:01:33;;;;;;;1.15;1.10;;;;;;;;;;5025170;28;58594;-68
2023/05/14 03:03:58;;;;;;;0.77;0.77;;;;;;;;;;5025527;28;58829;-68
2023/05/14 03:06:23;;;;;;;1.00;1.00;;;;;;;;;;5023962;28;58755;-67
2023/05/14 03:08:49;;;;;;;1.13;1.02;;;;;;;;;;5026215;28;58702;-67
2023/05/14 03:11:14;;;;;;;1.33;1.23;;;;;;;;;;5029526;28;58956;-67
2023/05/14 03:13:39;;;;;;;1.63;1.52;;;;;;;;;;5023503;28;58712;-67
2023/05/14 03:16:04;;;;;;;0.93;0.93;;;;;;;;;;5028234;28;58381;-66
2023/05/14 03:18:32;;;;;;;1.07;0.80;;;;;;;;;;5025205;28;59513;-67
2023/05/14 03:20:57;;;;;;;1.33;1.27;;;;;;;;;;5026268;28;58566;-68
2023/05/14 03:23:22;;;;;;;1.00;1.00;;;;;;;;;;5026076;28;58561;-67
2023/05/14 03:25:47;;;;;;;1.33;1.23;;;;;;;;;;5024528;28;58902;-67
2023/05/14 03:28:12;;;;;;;1.40;1.30;;;;;;;;;;5023000;28;59567;-67
2023/05/14 03:30:37;;;;;;;1.30;1.20;;;;;;;;;;5024814;28;58373;-64
2023/05/14 03:33:03;;;;;;;1.13;1.13;;;;;;;;;;5023959;28;58524;-68
2023/05/14 03:35:28;;;;;;;0.77;0.77;;;;;;;;;;5024076;28;58749;-68
2023/05/14 03:37:53;;;;;;;1.08;1.00;;;;;;;;;;5025450;28;58480;-69
2023/05/14 03:40:18;;;;;;;2.20;1.00;;;;;;;;;;5023103;28;57867;-68
2023/05/14 03:42:43;;;;;;;1.13;1.03;;;;;;;;;;5022656;28;58888;-67
2023/05/14 03:45:09;;;;;;;1.08;1.05;;;;;;;;;;5021450;28;58378;-68
2023/05/14 03:47:34;;;;;;;1.23;1.23;;;;;;;;;;5029668;28;58368;-67
2023/05/14 03:49:59;;;;;;;1.20;1.10;;;;;;;;;;5024910;28;58866;-68
2023/05/14 03:52:24;;;;;;;0.93;0.93;;;;;;;;;;5026682;28;58733;-69
2023/05/14 03:54:49;;;;;;;1.20;1.13;;;;;;;;;;5023693;28;58383;-68
2023/05/14 03:57:14;;;;;;;1.00;1.00;;;;;;;;;;5026541;28;58384;-68
2023/05/14 03:59:40;;;;;;;0.82;0.80;;;;;;;;;;5025944;28;58361;-66
2023/05/14 04:02:05;;;;;;;0.80;0.80;;;;;;;;;;5022469;28;58956;-68
2023/05/14 04:04:30;;;;;;;1.33;1.23;;;;;;;;;;5024930;28;58603;-67
2023/05/14 04:06:55;;;;;;;1.00;1.00;;;;;;;;;;5024639;28;58728;-64
2023/05/14 04:09:20;;;;;;;0.80;0.80;;;;;;;;;;5024105;28;58734;-68
2023/05/14 04:11:45;;;;;;;0.97;0.97;;;;;;;;;;5022985;28;58737;-62
2023/05/14 04:14:10;;;;;;;1.30;1.20;;;;;;;;;;5027300;28;58403;-67
2023/05/14 04:16:35;;;;;;;1.05;1.00;;;;;;;;;;5022092;28;58448;-62
2023/05/14 04:19:02;;;;;;;1.13;1.08;;;;;;;;;;5023569;28;58493;-68
2023/05/14 04:21:27;;;;;;;0.95;0.95;;;;;;;;;;5021526;28;58402;-65
2023/05/14 04:23:53;;;;;;;1.17;1.15;;;;;;;;;;5025331;28;58683;-68
2023/05/14 04:26:18;;;;;;;1.13;1.02;;;;;;;;;;5021411;28;58649;-67
2023/05/14 04:28:43;;;;;;;1.17;1.17;;;;;;;;;;5027348;28;58899;-68
2023/05/14 04:31:08;;;;;;;0.85;0.85;;;;;;;;;;5021848;28;59504;-65
2023/05/14 04:33:33;;;;;;;1.00;1.00;;;;;;;;;;5024221;28;59224;-66
2023/05/14 04:35:58;;;;;;;1.53;1.20;;;;;;;;;;5027014;28;59515;-68
2023/05/14 04:38:24;;;;;;;1.03;0.93;;;;;;;;;;5026142;28;58665;-67
2023/05/14 04:40:49;;;;;;;1.00;1.00;;;;;;;;;;5025303;28;58940;-66
2023/05/14 04:43:16;;;;;;;1.08;1.08;;;;;;;;;;5025278;28;58695;-67
2023/05/14 04:45:41;;;;;;;1.52;1.10;;;;;;;;;;5027342;28;58763;-68
2023/05/14 04:48:07;;;;;;;1.17;1.17;;;;;;;;;;5027034;28;59252;-68
2023/05/14 04:50:33;;;;;;;1.00;1.00;;;;;;;;;;5029405;28;58733;-69
2023/05/14 04:52:58;;;;;;;1.00;1.00;;;;;;;;;;5024074;28;58810;-67
2023/05/14 04:55:23;;;;;;;0.88;0.88;;;;;;;;;;5026917;28;58907;-68
2023/05/14 04:57:48;;;;;;;1.53;1.43;;;;;;;;;;5030419;28;58965;-68
2023/05/14 05:00:14;;;;;;;1.17;1.08;;;;;;;;;;5027056;28;58439;-69
2023/05/14 05:02:40;;;;;;;1.10;1.10;;;;;;;;;;5028654;28;58558;-68
2023/05/14 05:05:05;;;;;;;1.27;1.15;;;;;;;;;;5031513;28;58533;-68
2023/05/14 05:07:30;;;;;;;1.47;1.37;;;;;;;;;;5030382;28;58511;-68
2023/05/14 05:09:55;;;;;;;1.17;1.17;;;;;;;;;;5023504;28;58578;-66
2023/05/14 05:12:21;;;;;;;0.82;0.82;;;;;;;;;;5025764;28;58670;-68
2023/05/14 05:14:46;;;;;;;1.38;1.27;;;;;;;;;;5024276;28;58452;-68
2023/05/14 05:17:11;;;;;;;1.15;1.08;;;;;;;;;;5024262;28;58489;-66
2023/05/14 05:19:37;;;;;;;0.98;0.98;;;;;;;;;;5029207;28;58353;-68
2023/05/14 05:22:02;;;;;;;1.53;1.30;;;;;;;;;;5026844;28;59173;-68
2023/05/14 05:24:27;;;;;;;1.23;1.17;;;;;;;;;;5028990;28;58597;-67
2023/05/14 05:26:54;;;;;;;0.82;0.82;;;;;;;;;;5030825;28;58703;-67
2023/05/14 05:29:19;;;;;;;1.27;1.17;;;;;;;;;;5027810;28;58758;-68
2023/05/14 05:31:45;;;;;;;1.13;1.13;;;;;;;;;;5026313;28;58962;-69
2023/05/14 05:34:10;;;;;;;1.37;1.27;;;;;;;;;;5027690;28;58315;-67
2023/05/14 05:36:35;;;;;;;0.93;0.93;;;;;;;;;;5023070;28;57999;-68
2023/05/14 05:39:00;;;;;;;1.00;0.90;;;;;;;;;;5026413;28;58637;-68
2023/05/14 05:41:25;;;;;;;1.48;1.38;;;;;;;;;;5030862;28;58619;-67
2023/05/14 05:43:50;;;;;;;1.45;1.20;;;;;;;;;;5027382;28;58777;-68
2023/05/14 05:46:16;;;;;;;1.25;1.15;;;;;;;;;;5036550;28;58849;-68
2023/05/14 05:48:41;;;;;;;1.00;1.00;;;;;;;;;;5028226;28;58737;-69
2023/05/14 05:51:06;;;;;;;0.98;0.98;;;;;;;;;;5032615;28;58886;-69
2023/05/14 05:53:31;;;;;;;1.15;1.05;;;;;;;;;;5035489;28;58434;-67
2023/05/14 05:55:56;;;;;;;0.90;0.90;;;;;;;;;;5026019;28;58824;-66
2023/05/14 05:58:21;;;;;;;1.15;1.10;;;;;;;;;;5027338;28;58299;-69
2023/05/14 06:00:46;;;;;;;1.08;1.05;;;;;;;;;;5028808;28;58874;-69
2023/05/14 06:03:12;;;;;;;1.10;1.10;;;;;;;;;;5028482;28;58516;-67
2023/05/14 06:05:37;;;;;;;1.45;1.35;;;;;;;;;;5037123;28;58755;-68
2023/05/14 06:08:03;;;;;;;1.17;1.07;;;;;;;;;;5030598;28;58697;-68
2023/05/14 06:10:28;;;;;;;0.95;0.95;;;;;;;;;;5027918;28;58777;-68
2023/05/14 06:12:53;;;;;;;1.05;0.95;;;;;;;;;;5027308;28;58529;-69
2023/05/14 06:15:18;;;;;;;0.93;0.80;;;;;;;;;;5035383;28;59363;-69
2023/05/14 06:17:43;;;;;;;1.37;1.27;;;;;;;;;;5036986;28;58483;-67
2023/05/14 06:20:09;;;;;;;1.27;1.17;;;;;;;;;;5038128;28;58388;-69
2023/05/14 06:22:34;;;;;;;1.83;1.25;;;;;;;;;;5030583;28;58759;-69
2023/05/14 06:24:59;;;;;;;1.63;1.53;;;;;;;;;;5036224;28;58290;-66
2023/05/14 06:27:24;;;;;;;1.80;1.70;;;;;;;;;;5034552;28;58401;-68
2023/05/14 06:29:49;;;;;;;1.70;1.03;;;;;;;;;;5036322;28;58507;-66
2023/05/14 06:32:15;;;;;;;1.83;1.10;;;;;;;;;;5033927;28;58436;-69
2023/05/14 06:34:41;;;;;;;1.30;1.20;;;;;;;;;;5031926;28;58852;-69
2023/05/14 06:37:06;;;;;;;0.75;0.75;;;;;;;;;;5033066;28;58460;-68
2023/05/14 06:39:31;;;;;;;1.30;1.20;;;;;;;;;;5035664;28;58830;-67
2023/05/14 06:41:57;;;;;;;3.03;0.90;;;;;;;;;;5032795;28;58859;-68
2023/05/14 06:44:22;;;;;;;1.20;1.10;;;;;;;;;;5030876;28;58529;-68
2023/05/14 06:46:47;;;;;;;2.10;1.10;;;;;;;;;;5037319;28;58851;-69
2023/05/14 06:49:12;;;;;;;1.20;0.95;;;;;;;;;;5033549;28;58387;-68
2023/05/14 06:51:37;;;;;;;0.98;0.93;;;;;;;;;;5033707;28;58666;-69
2023/05/14 06:54:03;;;;;;;1.23;1.13;;;;;;;;;;5037153;28;58926;-67
2023/05/14 06:56:28;;;;;;;1.50;1.40;;;;;;;;;;5036311;28;58314;-68
2023/05/14 06:58:53;;;;;;;0.88;0.88;;;;;;;;;;5029715;28;58367;-69
2023/05/14 07:01:18;;;;;;;1.47;1.20;;;;;;;;;;5030880;28;58377;-68
2023/05/14 07:03:43;;;;;;;2.25;0.85;;;;;;;;;;5029466;28;58755;-67
2023/05/14 07:06:08;;;;;;;1.42;1.33;;;;;;;;;;5032178;28;58757;-63
2023/05/14 07:08:33;;;;;;;5.88;1.73;;;;;;;;;;5028240;28;58919;-67
2023/05/14 07:10:59;;;;;;;2.72;1.00;;;;;;;;;;5033749;28;58506;-68
2023/05/14 07:13:25;;;;;;;1.67;1.13;;;;;;;;;;5035873;28;58629;-67
2023/05/14 07:15:50;;;;;;;1.67;1.50;;;;;;;;;;5031207;28;58254;-67
2023/05/14 07:18:16;;;;;;;0.93;0.93;;;;;;;;;;5032458;28;59697;-65
2023/05/14 07:20:41;;;;;;;1.23;1.02;;;;;;;;;;5030000;28;59124;-69
2023/05/14 07:23:06;;;;;;;2.75;1.30;;;;;;;;;;5032828;28;58372;-68
2023/05/14 07:25:31;;;;;;;1.20;1.10;;;;;;;;;;5031805;28;60140;-68
2023/05/14 07:27:56;;;;;;;1.50;1.40;;;;;;;;;;5031881;28;59299;-69
2023/05/14 07:30:21;;;;;;;1.57;1.30;;;;;;;;;;5032577;28;59195;-67
2023/05/14 07:32:47;;;;;;;1.17;1.13;;;;;;;;;;5026494;28;59500;-69
2023/05/14 07:35:12;;;;;;;1.00;1.00;;;;;;;;;;5033729;28;58875;-67
2023/05/14 07:37:37;;;;;;;1.57;1.30;;;;;;;;;;5029561;28;59214;-64
2023/05/14 07:40:02;;;;;;;1.73;1.23;;;;;;;;;;5029681;28;58871;-68
2023/05/14 07:42:28;;;;;;;1.00;1.00;;;;;;;;;;5028250;28;58413;-66
2023/05/14 07:44:53;;;;;;;2.40;1.13;;;;;;;;;;5027514;28;58569;-68
2023/05/14 07:47:18;;;;;;;2.53;1.40;;;;;;;;;;5030368;28;58382;-65
2023/05/14 07:49:43;;;;;;;1.88;1.23;;;;;;;;;;5026747;28;58290;-68
2023/05/14 07:52:08;;;;;;;1.43;1.20;;;;;;;;;;5030749;28;58770;-68
2023/05/14 07:54:33;;;;;;;1.00;1.00;;;;;;;;;;5030676;28;58791;-68
2023/05/14 07:56:59;;;;;;;2.67;1.30;;;;;;;;;;5029711;28;59227;-67
2023/05/14 07:59:24;;;;;;;1.17;1.07;;;;;;;;;;5026633;28;58532;-67
2023/05/14 08:01:50;;;;;;;2.17;1.90;;;;;;;;;;5031668;28;58822;-64
2023/05/14 08:04:15;;;;;;;1.85;1.25;;;;;;;;;;5031138;28;58750;-68
2023/05/14 08:06:40;;;;;;;4.67;1.20;;;;;;;;;;5024817;28;59121;-64
2023/05/14 08:09:06;;;;;;;2.28;1.33;;;;;;;;;;5020105;28;59091;-65
2023/05/14 08:11:31;;;;;;;1.58;1.48;;;;;;;;;;5029635;28;58429;-68
2023/05/14 08:13:56;;;;;;;3.22;1.67;;;;;;;;;;5028465;28;58416;-67
2023/05/14 08:16:21;;;;;;;1.77;1.30;;;;;;;;;;5028469;28;59238;-68
2023/05/14 08:18:47;;;;;;;1.77;1.23;;;;;;;;;;5028586;28;58750;-62
2023/05/14 08:21:12;;;;;;;1.58;1.48;;;;;;;;;;5031980;28;58466;-68
2023/05/14 08:23:37;;;;;;;1.85;1.10;;;;;;;;;;5028397;28;58515;-65
2023/05/14 08:26:02;;;;;;;1.77;1.63;;;;;;;;;;5025688;28;59216;-67
2023/05/14 08:28:27;;;;;;;2.22;1.50;;;;;;;;;;5028363;28;58709;-67
2023/05/14 08:30:52;;;;;;;4.57;2.03;;;;;;;;;;5031475;28;58387;-68
2023/05/14 08:33:17;;;;;;;1.63;1.50;;;;;;;;;;5026502;28;58371;-67
2023/05/14 08:35:43;;;;;;;1.98;1.67;;;;;;;;;;5030783;28;58569;-68
2023/05/14 08:38:08;;;;;;;2.40;1.27;;;;;;;;;;5029835;28;59695;-66
2023/05/14 08:40:33;;;;;;;2.72;1.55;;;;;;;;;;5035852;28;58830;-67
2023/05/14 08:42:59;;;;;;;1.63;1.50;;;;;;;;;;5035175;28;60074;-65
2023/05/14 08:45:28;;;;;;;1.65;1.50;;;;;;;;;;5031909;28;58505;-64
2023/05/14 08:47:54;;;;;;;3.33;1.92;;;;;;;;;;5026633;28;58373;-64
2023/05/14 08:50:19;;;;;;;4.88;1.65;;;;;;;;;;5037080;28;58316;-65
2023/05/14 08:52:44;;;;;;;2.87;1.40;;;;;;;;;;5030321;28;58576;-65
2023/05/14 08:55:11;;;;;;;3.75;1.95;;;;;;;;;;5037166;28;58398;-64
2023/05/14 08:57:36;;;;;;;2.00;1.85;;;;;;;;;;5029727;28;58937;-67
2023/05/14 09:00:12;;;;;;;2.03;1.80;;;;;;;;;;5029760;28;58832;-66
2023/05/14 09:02:38;;;;;;;2.05;1.70;;;;;;;;;;5033698;28;59196;-65
2023/05/14 09:05:04;;;;;;;4.07;1.75;;;;;;;;;;5030481;28;58696;-65
2023/05/14 09:07:29;;;;;;;3.17;1.25;;;;;;;;;;5033731;28;58490;-67
2023/05/14 09:09:54;;;;;;;2.63;1.47;;;;;;;;;;5029287;28;58965;-65
2023/05/14 09:12:20;;;;;;;3.87;2.60;;;;;;;;;;5025870;28;58779;-67
2023/05/14 09:14:46;;;;;;;4.88;2.22;;;;;;;;;;5030454;28;58690;-66
2023/05/14 09:17:11;;;;;;;3.33;1.90;;;;;;;;;;5037057;28;58671;-66
2023/05/14 09:19:39;;;;;;;5.10;2.38;;;;;;;;;;5038601;28;58779;-65
2023/05/14 09:22:06;;;;;;;2.67;1.60;;;;;;;;;;5037868;28;59871;-66
2023/05/14 09:24:32;;;;;;;3.67;1.17;;;;;;;;;;5035595;28;59208;-65
2023/05/14 09:26:57;;;;;;;3.03;1.98;;;;;;;;;;5035321;28;58960;-67
2023/05/14 09:29:25;;;;;;;2.15;1.63;;;;;;;;;;5039063;28;58903;-67
2023/05/14 09:31:51;;;;;;;4.68;2.35;;;;;;;;;;5036845;28;59498;-67
2023/05/14 09:34:37;;;;;;;2.60;1.50;;;;;;;;;;5038644;28;58494;-67
2023/05/14 09:37:04;;;;;;;4.07;2.00;;;;;;;;;;5036315;28;58634;-68
2023/05/14 09:39:29;;;;;;;5.50;1.88;;;;;;;;;;5035262;28;58739;-69
2023/05/14 09:41:55;;;;;;;8.33;2.03;;;;;;;;;;5063554;22;59430;-70
2023/05/14 09:44:20;;;;;;;8.77;2.20;;;;;;;;;;5046054;28;60071;-65
2023/05/14 09:46:45;;;;;;;4.72;1.80;;;;;;;;;;5047332;28;58456;-68
2023/05/14 09:49:11;;;;;;;1.83;1.73;;;;;;;;;;5046921;28;58951;-69
2023/05/14 09:51:36;;;;;;;1.80;1.50;;;;;;;;;;5041490;28;58569;-68
2023/05/14 09:54:02;;;;;;;5.75;2.17;;;;;;;;;;5037786;28;58660;-69
2023/05/14 09:56:27;;;;;;;1.60;1.50;;;;;;;;;;5039340;28;58279;-68
2023/05/14 09:58:53;;;;;;;2.17;1.20;;;;;;;;;;5037143;28;58548;-68
2023/05/14 10:01:19;;;;;;;3.75;1.77;;;;;;;;;;5036984;28;58668;-67
2023/05/14 10:03:45;;;;;;;4.03;1.83;;;;;;;;;;5035564;28;59594;-69
2023/05/14 10:06:12;;;;;;;2.15;1.70;;;;;;;;;;5039781;28;58667;-68
2023/05/14 10:08:39;;;;;;;1.33;1.13;;;;;;;;;;5036044;28;59061;-68
2023/05/14 10:11:06;;;;;;;5.38;1.88;;;;;;;;;;5036033;28;58741;-69
2023/05/14 10:13:36;;;;;;;1.67;1.55;;;;;;;;;;5033132;28;58495;-68
2023/05/14 10:16:08;;;;;;;2.08;1.50;;;;;;;;;;5036951;28;59116;-68
2023/05/14 10:18:47;;;;;;;1.60;1.50;;;;;;;;;;5035257;28;58777;-66
2023/05/14 10:21:13;;;;;;;1.60;1.50;;;;;;;;;;5039295;28;58513;-66
2023/05/14 10:23:39;;;;;;;2.97;1.95;;;;;;;;;;5038502;28;58399;-70
2023/05/14 10:26:04;;;;;;;2.15;1.95;;;;;;;;;;5039398;28;58356;-67
2023/05/14 10:28:30;;;;;;;3.00;1.10;;;;;;;;;;5040381;28;58962;-66
2023/05/14 10:30:58;;;;;;;1.83;1.67;;;;;;;;;;5035302;28;58504;-68
2023/05/14 10:33:23;;;;;;;1.50;1.40;;;;;;;;;;5036469;28;58519;-71
2023/05/14 10:35:54;;;;;;;1.83;1.73;;;;;;;;;;5038289;28;58365;-66
2023/05/14 10:38:29;;;;;;;10.63;2.13;;;;;;;;;;5039371;28;58779;-68
2023/05/14 10:41:04;;;;;;;4.28;1.67;;;;;;;;;;5039209;28;58395;-68
2023/05/14 10:43:30;;;;;;;1.40;1.30;;;;;;;;;;5037479;28;58621;-67
2023/05/14 10:45:56;;;;;;;2.58;1.05;;;;;;;;;;5037831;28;58693;-66
2023/05/14 10:48:21;;;;;;;3.20;2.38;;;;;;;;;;5064820;22;59290;-65
2023/05/14 10:50:47;;;;;;;2.47;2.03;;;;;;;;;;5037786;27;59002;-66
2023/05/14 10:53:12;;;;;;;4.43;2.13;;;;;;;;;;5039255;28;58775;-67
2023/05/14 10:55:37;;;;;;;4.20;1.13;;;;;;;;;;5036448;28;59058;-68
2023/05/14 10:58:03;;;;;;;1.90;1.20;;;;;;;;;;5034836;27;58837;-70
2023/05/14 11:00:31;;;;;;;2.70;1.50;;;;;;;;;;5025147;28;59583;-68
2023/05/14 11:02:57;;;;;;;1.95;1.02;;;;;;;;;;5026267;28;58317;-64
2023/05/14 11:05:22;;;;;;;1.88;1.50;;;;;;;;;;5026898;28;58636;-64
2023/05/14 11:07:48;;;;;;;4.50;1.10;;;;;;;;;;5027287;28;59089;-64
2023/05/14 11:10:15;;;;;;;1.30;1.20;;;;;;;;;;5026092;28;58507;-64
2023/05/14 11:12:41;;;;;;;2.95;1.98;;;;;;;;;;5027907;28;58706;-66
2023/05/14 11:15:08;;;;;;;1.63;1.30;;;;;;;;;;5028123;28;58632;-69
2023/05/14 11:17:34;;;;;;;1.70;1.40;;;;;;;;;;5027853;28;59561;-69
2023/05/14 11:19:59;;;;;;;1.25;1.00;;;;;;;;;;5028519;28;58878;-68
2023/05/14 11:22:25;;;;;;;1.35;1.20;;;;;;;;;;5023044;28;58512;-70
2023/05/14 11:24:50;;;;;;;1.15;1.00;;;;;;;;;;5018734;28;58538;-68
2023/05/14 11:27:16;;;;;;;2.45;1.35;;;;;;;;;;5022945;28;58329;-70
2023/05/14 11:29:45;;;;;;;1.50;1.15;;;;;;;;;;5020893;28;58698;-70
2023/05/14 11:32:10;;;;;;;2.03;1.20;;;;;;;;;;5023060;28;58576;-68
2023/05/14 11:34:36;;;;;;;6.18;1.20;;;;;;;;;;5022435;28;58619;-69
2023/05/14 11:37:04;;;;;;;1.45;1.35;;;;;;;;;;5021019;28;58939;-68
2023/05/14 11:39:32;;;;;;;1.90;1.23;;;;;;;;;;5024944;28;59335;-68
2023/05/14 11:41:58;;;;;;;2.20;1.42;;;;;;;;;;5024782;28;58818;-67
2023/05/14 11:44:23;;;;;;;9.82;1.48;;;;;;;;;;5023480;28;58521;-67
2023/05/14 11:47:00;;;;;;;1.67;1.57;;;;;;;;;;5018966;28;58442;-65
2023/05/14 11:49:27;;;;;;;1.58;1.40;;;;;;;;;;5027580;28;58367;-69
2023/05/14 11:52:02;;;;;;;1.00;0.90;;;;;;;;;;5023405;28;58407;-69
2023/05/14 11:54:28;;;;;;;3.88;1.40;;;;;;;;;;5024455;28;59905;-71
2023/05/14 11:56:54;;;;;;;3.78;1.35;;;;;;;;;;5026896;28;58437;-68
2023/05/14 11:59:20;;;;;;;1.30;1.20;;;;;;;;;;5024291;28;58424;-69
2023/05/14 12:01:46;;;;;;;2.17;1.02;;;;;;;;;;5022972;28;58387;-66
2023/05/14 12:04:12;;;;;;;1.67;1.20;;;;;;;;;;5020066;28;58414;-68
2023/05/14 12:06:37;;;;;;;1.88;1.10;;;;;;;;;;5017671;28;58502;-70
2023/05/14 12:09:03;;;;;;;2.13;1.15;;;;;;;;;;5023927;28;58456;-69
2023/05/14 12:11:31;;;;;;;9.45;1.77;;;;;;;;;;5020014;28;58830;-66
2023/05/14 12:13:58;;;;;;;4.10;1.38;;;;;;;;;;5019742;28;58917;-67
2023/05/14 12:16:28;;;;;;;1.98;1.05;;;;;;;;;;5064697;22;58511;-68
2023/05/14 12:18:53;;;;;;;3.58;1.20;;;;;;;;;;5042309;28;58627;-69
2023/05/14 12:21:18;;;;;;;4.43;1.53;;;;;;;;;;5042281;28;58706;-72
2023/05/14 12:23:43;;;;;;;4.97;1.37;;;;;;;;;;5043973;28;58412;-66
2023/05/14 12:26:09;;;;;;;1.10;1.00;;;;;;;;;;5042572;28;59414;-64
2023/05/14 12:28:37;;;;;;;2.87;1.33;;;;;;;;;;5043597;28;58977;-66
2023/05/14 12:31:02;;;;;;;5.60;1.40;;;;;;;;;;5044328;28;58621;-65
2023/05/14 12:33:28;;;;;;;4.32;1.45;;;;;;;;;;5043313;28;58913;-67
2023/05/14 12:35:56;;;;;;;1.27;1.17;;;;;;;;;;5043057;28;59272;-64
2023/05/14 12:38:24;;;;;;;;;;;;;;;;;;5043494;28;58429;-64
2023/05/14 12:40:49;;;;;;;;;;;;;;;;;;5044749;28;57946;-64
2023/05/14 12:43:14;;;;;;;2.97;1.13;;;;;;;;;;5044219;28;58060;-67
2023/05/14 12:45:39;;;;;;;2.65;1.13;;;;;;;;;;5045215;28;58405;-68
2023/05/14 12:48:05;;;;;;;3.03;1.00;;;;;;;;;;5046220;28;58702;-64
2023/05/14 12:50:30;;;;;;;1.98;1.30;;;;;;;;;;5049248;28;58812;-67
2023/05/14 12:52:56;;;;;;;0.88;0.88;;;;;;;;;;5051725;27;58434;-67
2023/05/14 12:55:21;;;;;;;1.60;1.10;;;;;;;;;;5046826;28;59827;-65
2023/05/14 12:57:46;;;;;;;2.90;1.40;;;;;;;;;;5048413;27;58417;-65
2023/05/14 13:00:12;;;;;;;3.93;1.97;;;;;;;;;;5050824;27;58456;-68
2023/05/14 13:02:37;;;;;;;2.13;1.23;;;;;;;;;;5049157;27;58491;-68
2023/05/14 13:05:02;;;;;;;4.82;1.88;;;;;;;;;;5053620;28;58498;-67
2023/05/14 13:07:31;;;;;;;4.93;1.25;;;;;;;;;;5051573;28;58716;-64
2023/05/14 13:09:56;;;;;;;3.58;2.13;;;;;;;;;;5049656;27;58847;-66
2023/05/14 13:12:22;;;;;;;5.57;1.90;;;;;;;;;;5050811;27;58396;-70
2023/05/14 13:14:47;;;;;;;2.08;1.17;;;;;;;;;;5052668;28;58393;-70
2023/05/14 13:17:12;;;;;;;2.63;1.08;;;;;;;;;;5050091;28;58700;-67
2023/05/14 13:19:37;;;;;;;1.67;1.57;;;;;;;;;;5046980;28;58953;-66
2023/05/14 13:22:03;;;;;;;5.30;2.22;;;;;;;;;;5051735;27;58538;-67
2023/05/14 13:24:28;;;;;;;3.90;2.00;;;;;;;;;;5051739;28;58710;-63
2023/05/14 13:26:53;;;;;;;2.10;1.90;;;;;;;;;;5054266;27;59709;-68
2023/05/14 13:29:18;;;;;;;2.55;1.20;;;;;;;;;;5051977;28;58749;-67
2023/05/14 13:31:43;;;;;;;8.88;3.17;;;;;;;;;;5045124;28;58534;-74
2023/05/14 13:34:09;;;;;;;2.85;1.50;;;;;;;;;;5036654;22;60910;-68
2023/05/14 13:36:38;;;;;;;1.75;1.13;;;;;;;;;;5025727;28;58877;-68
2023/05/14 13:39:03;;;;;;;4.57;1.42;;;;;;;;;;5028146;28;58889;-64
2023/05/14 13:41:28;;;;;;;2.63;1.67;;;;;;;;;;5029389;28;58693;-68
2023/05/14 13:43:54;;;;;;;3.70;1.60;;;;;;;;;;5027379;28;58436;-69
2023/05/14 13:46:19;;;;;;;1.70;1.10;;;;;;;;;;5027282;28;58778;-68
2023/05/14 13:48:44;;;;;;;8.30;1.57;;;;;;;;;;5027622;28;58526;-67
2023/05/14 13:51:09;;;;;;;7.63;1.97;;;;;;;;;;5028110;28;58543;-65
2023/05/14 13:53:34;;;;;;;1.60;1.47;;;;;;;;;;5027363;28;59312;-68
2023/05/14 13:56:00;;;;;;;4.97;2.00;;;;;;;;;;5025362;28;59346;-67
2023/05/14 13:58:26;;;;;;;8.43;1.98;;;;;;;;;;5028042;28;58435;-66
2023/05/14 14:00:51;;;;;;;2.42;1.52;;;;;;;;;;5026348;28;58538;-67
2023/05/14 14:03:17;;;;;;;3.22;1.40;;;;;;;;;;5026918;28;58642;-66
2023/05/14 14:05:42;;;;;;;2.53;1.40;;;;;;;;;;5026858;28;58929;-67
2023/05/14 14:08:07;;;;;;;2.50;1.83;;;;;;;;;;5027822;28;59263;-68
2023/05/14 14:10:32;;;;;;;8.63;1.25;;;;;;;;;;5031008;28;58395;-68
2023/05/14 14:12:57;;;;;;;3.03;1.95;;;;;;;;;;5025499;28;58694;-67
2023/05/14 14:15:23;;;;;;;4.53;1.27;;;;;;;;;;5028559;28;58677;-66
2023/05/14 14:17:48;;;;;;;4.20;2.25;;;;;;;;;;5028558;28;58521;-65
2023/05/14 14:20:13;;;;;;;2.37;1.53;;;;;;;;;;5026038;28;59160;-67
2023/05/14 14:22:39;;;;;;;4.50;1.87;;;;;;;;;;5025425;28;58461;-67
2023/05/14 14:25:06;;;;;;;1.63;1.30;;;;;;;;;;5029719;28;58886;-67
2023/05/14 14:27:32;;;;;;;5.32;1.63;;;;;;;;;;5031702;28;59617;-68
2023/05/14 14:29:57;;;;;;;3.83;1.95;;;;;;;;;;5023258;28;58768;-69
2023/05/14 14:32:23;;;;;;;2.95;1.30;;;;;;;;;;5028633;28;58517;-65
2023/05/14 14:34:48;;;;;;;4.73;2.37;;;;;;;;;;5029905;28;58572;-65